sensor_id;sensor_type;location;lat;lon;timestamp;P1;durP1;ratioP1;P2;durP2;ratioP2
23474;SDS011;11910;52.086;21.066;2023-01-28T00:00:56;78.95;;;39.97;;
23474;SDS011;11910;52.086;21.066;2023-01-28T00:03:22;77.28;;;39.15;;
23474;SDS011;11910;52.086;21.066;2023-01-28T00:05:48;72.50;;;38.65;;
23474;SDS011;11910;52.086;21.066;2023-01-28T00:08:13;78.53;;;39.80;;
23474;SDS011;11910;52.086;21.066;2023-01-28T00:10:39;79.80;;;39.67;;
23474;SDS011;11910;52.086;21.066;2023-01-28T00:13:06;77.22;;;39.78;;
23474;SDS011;11910;52.086;21.066;2023-01-28T00:15:33;77.72;;;39.25;;
23474;SDS011;11910;52.086;21.066;2023-01-28T00:17:59;75.43;;;40.17;;
23474;SDS011;11910;52.086;21.066;2023-01-28T00:20:25;73.90;;;38.10;;
23474;SDS011;11910;52.086;21.066;2023-01-28T00:22:50;72.47;;;38.15;;
23474;SDS011;11910;52.086;21.066;2023-01-28T00:25:16;74.53;;;38.92;;
23474;SDS011;11910;52.086;21.066;2023-01-28T00:27:41;76.25;;;40.25;;
23474;SDS011;11910;52.086;21.066;2023-01-28T00:30:07;72.90;;;38.22;;
23474;SDS011;11910;52.086;21.066;2023-01-28T00:32:33;70.75;;;36.83;;
23474;SDS011;11910;52.086;21.066;2023-01-28T00:34:59;73.43;;;38.03;;
23474;SDS011;11910;52.086;21.066;2023-01-28T00:37:24;71.28;;;37.15;;
23474;SDS011;11910;52.086;21.066;2023-01-28T00:39:50;73.75;;;37.80;;
23474;SDS011;11910;52.086;21.066;2023-01-28T00:42:16;69.90;;;36.90;;
23474;SDS011;11910;52.086;21.066;2023-01-28T00:44:41;73.50;;;37.75;;
23474;SDS011;11910;52.086;21.066;2023-01-28T00:47:07;70.65;;;37.58;;
23474;SDS011;11910;52.086;21.066;2023-01-28T00:49:32;67.22;;;36.40;;
23474;SDS011;11910;52.086;21.066;2023-01-28T00:51:58;66.97;;;35.67;;
23474;SDS011;11910;52.086;21.066;2023-01-28T00:54:24;62.08;;;33.60;;
23474;SDS011;11910;52.086;21.066;2023-01-28T00:56:49;69.63;;;36.08;;
23474;SDS011;11910;52.086;21.066;2023-01-28T00:59:17;65.88;;;33.72;;
23474;SDS011;11910;52.086;21.066;2023-01-28T01:01:43;67.25;;;34.58;;
23474;SDS011;11910;52.086;21.066;2023-01-28T01:04:08;67.45;;;36.45;;
23474;SDS011;11910;52.086;21.066;2023-01-28T01:06:35;71.00;;;36.33;;
23474;SDS011;11910;52.086;21.066;2023-01-28T01:09:03;71.28;;;37.00;;
23474;SDS011;11910;52.086;21.066;2023-01-28T01:11:31;66.90;;;35.60;;
23474;SDS011;11910;52.086;21.066;2023-01-28T01:13:57;70.45;;;36.30;;
23474;SDS011;11910;52.086;21.066;2023-01-28T01:16:28;68.20;;;36.00;;
23474;SDS011;11910;52.086;21.066;2023-01-28T01:18:57;68.95;;;34.80;;
23474;SDS011;11910;52.086;21.066;2023-01-28T01:21:24;66.20;;;35.67;;
23474;SDS011;11910;52.086;21.066;2023-01-28T01:23:52;69.93;;;36.63;;
23474;SDS011;11910;52.086;21.066;2023-01-28T01:26:17;66.20;;;34.72;;
23474;SDS011;11910;52.086;21.066;2023-01-28T01:28:44;68.50;;;36.08;;
23474;SDS011;11910;52.086;21.066;2023-01-28T01:31:11;65.95;;;34.65;;
23474;SDS011;11910;52.086;21.066;2023-01-28T01:33:42;65.78;;;35.97;;
23474;SDS011;11910;52.086;21.066;2023-01-28T01:36:11;65.70;;;34.63;;
23474;SDS011;11910;52.086;21.066;2023-01-28T01:38:38;72.32;;;36.20;;
23474;SDS011;11910;52.086;21.066;2023-01-28T01:41:05;69.53;;;36.40;;
23474;SDS011;11910;52.086;21.066;2023-01-28T01:43:50;66.10;;;35.17;;
23474;SDS011;11910;52.086;21.066;2023-01-28T01:46:20;61.28;;;33.90;;
23474;SDS011;11910;52.086;21.066;2023-01-28T01:49:00;67.50;;;35.78;;
23474;SDS011;11910;52.086;21.066;2023-01-28T01:51:36;72.03;;;35.72;;
23474;SDS011;11910;52.086;21.066;2023-01-28T01:54:02;64.03;;;33.17;;
23474;SDS011;11910;52.086;21.066;2023-01-28T01:56:29;68.95;;;34.85;;
23474;SDS011;11910;52.086;21.066;2023-01-28T01:58:59;65.72;;;34.40;;
23474;SDS011;11910;52.086;21.066;2023-01-28T02:01:26;63.55;;;34.15;;
23474;SDS011;11910;52.086;21.066;2023-01-28T02:06:25;66.63;;;35.50;;
23474;SDS011;11910;52.086;21.066;2023-01-28T02:08:53;65.70;;;34.28;;
23474;SDS011;11910;52.086;21.066;2023-01-28T02:11:19;62.92;;;33.83;;
23474;SDS011;11910;52.086;21.066;2023-01-28T02:13:47;65.13;;;34.88;;
23474;SDS011;11910;52.086;21.066;2023-01-28T02:16:16;63.70;;;34.78;;
23474;SDS011;11910;52.086;21.066;2023-01-28T02:18:42;68.53;;;34.88;;
23474;SDS011;11910;52.086;21.066;2023-01-28T02:24:28;67.97;;;35.65;;
23474;SDS011;11910;52.086;21.066;2023-01-28T02:29:55;69.28;;;35.95;;
23474;SDS011;11910;52.086;21.066;2023-01-28T02:32:35;65.80;;;34.38;;
23474;SDS011;11910;52.086;21.066;2023-01-28T02:40:27;64.03;;;34.85;;
23474;SDS011;11910;52.086;21.066;2023-01-28T02:42:58;66.55;;;34.90;;
23474;SDS011;11910;52.086;21.066;2023-01-28T02:45:29;66.20;;;35.33;;
23474;SDS011;11910;52.086;21.066;2023-01-28T02:48:15;67.53;;;35.90;;
23474;SDS011;11910;52.086;21.066;2023-01-28T02:50:46;62.53;;;33.75;;
23474;SDS011;11910;52.086;21.066;2023-01-28T02:53:30;65.40;;;35.33;;
23474;SDS011;11910;52.086;21.066;2023-01-28T02:58:59;65.10;;;33.88;;
23474;SDS011;11910;52.086;21.066;2023-01-28T03:01:49;63.95;;;33.97;;
23474;SDS011;11910;52.086;21.066;2023-01-28T03:04:32;65.57;;;35.08;;
23474;SDS011;11910;52.086;21.066;2023-01-28T03:07:02;65.20;;;35.17;;
23474;SDS011;11910;52.086;21.066;2023-01-28T03:09:31;62.75;;;33.97;;
23474;SDS011;11910;52.086;21.066;2023-01-28T03:12:03;62.95;;;33.10;;
23474;SDS011;11910;52.086;21.066;2023-01-28T03:18:38;65.00;;;33.85;;
23474;SDS011;11910;52.086;21.066;2023-01-28T03:21:33;63.03;;;33.67;;
23474;SDS011;11910;52.086;21.066;2023-01-28T03:24:29;63.15;;;34.00;;
23474;SDS011;11910;52.086;21.066;2023-01-28T03:27:21;63.65;;;33.28;;
23474;SDS011;11910;52.086;21.066;2023-01-28T03:30:35;65.85;;;35.35;;
23474;SDS011;11910;52.086;21.066;2023-01-28T03:33:25;62.58;;;33.45;;
23474;SDS011;11910;52.086;21.066;2023-01-28T03:36:11;68.50;;;34.67;;
23474;SDS011;11910;52.086;21.066;2023-01-28T03:38:56;63.35;;;34.05;;
23474;SDS011;11910;52.086;21.066;2023-01-28T03:41:23;62.67;;;33.17;;
23474;SDS011;11910;52.086;21.066;2023-01-28T03:43:50;62.08;;;34.00;;
23474;SDS011;11910;52.086;21.066;2023-01-28T03:46:17;67.93;;;34.63;;
23474;SDS011;11910;52.086;21.066;2023-01-28T03:48:43;69.60;;;34.95;;
23474;SDS011;11910;52.086;21.066;2023-01-28T03:51:09;66.63;;;34.67;;
23474;SDS011;11910;52.086;21.066;2023-01-28T03:53:34;66.57;;;34.88;;
23474;SDS011;11910;52.086;21.066;2023-01-28T03:56:01;65.00;;;33.40;;
23474;SDS011;11910;52.086;21.066;2023-01-28T03:58:27;56.33;;;30.52;;
23474;SDS011;11910;52.086;21.066;2023-01-28T04:01:16;64.55;;;32.97;;
23474;SDS011;11910;52.086;21.066;2023-01-28T04:03:43;62.50;;;32.70;;
23474;SDS011;11910;52.086;21.066;2023-01-28T04:06:08;62.10;;;32.45;;
23474;SDS011;11910;52.086;21.066;2023-01-28T04:08:34;55.20;;;29.92;;
23474;SDS011;11910;52.086;21.066;2023-01-28T04:11:00;62.28;;;32.22;;
23474;SDS011;11910;52.086;21.066;2023-01-28T04:13:42;65.85;;;32.30;;
23474;SDS011;11910;52.086;21.066;2023-01-28T04:16:09;60.97;;;31.60;;
23474;SDS011;11910;52.086;21.066;2023-01-28T04:18:35;56.80;;;29.85;;
23474;SDS011;11910;52.086;21.066;2023-01-28T04:21:00;61.97;;;32.70;;
23474;SDS011;11910;52.086;21.066;2023-01-28T04:23:26;63.38;;;32.33;;
23474;SDS011;11910;52.086;21.066;2023-01-28T04:25:53;61.08;;;31.52;;
23474;SDS011;11910;52.086;21.066;2023-01-28T04:28:19;66.72;;;33.72;;
23474;SDS011;11910;52.086;21.066;2023-01-28T04:30:45;65.60;;;31.60;;
23474;SDS011;11910;52.086;21.066;2023-01-28T04:33:10;66.68;;;32.40;;
23474;SDS011;11910;52.086;21.066;2023-01-28T04:35:36;69.43;;;33.20;;
23474;SDS011;11910;52.086;21.066;2023-01-28T04:38:01;66.43;;;31.85;;
23474;SDS011;11910;52.086;21.066;2023-01-28T04:40:27;62.05;;;30.63;;
23474;SDS011;11910;52.086;21.066;2023-01-28T04:42:53;70.10;;;32.47;;
23474;SDS011;11910;52.086;21.066;2023-01-28T04:45:20;62.45;;;31.05;;
23474;SDS011;11910;52.086;21.066;2023-01-28T04:47:46;64.53;;;32.17;;
23474;SDS011;11910;52.086;21.066;2023-01-28T04:50:11;58.67;;;30.40;;
23474;SDS011;11910;52.086;21.066;2023-01-28T04:52:37;60.25;;;30.52;;
23474;SDS011;11910;52.086;21.066;2023-01-28T04:55:03;62.65;;;30.95;;
23474;SDS011;11910;52.086;21.066;2023-01-28T04:57:32;61.20;;;30.60;;
23474;SDS011;11910;52.086;21.066;2023-01-28T04:59:58;58.33;;;30.38;;
23474;SDS011;11910;52.086;21.066;2023-01-28T05:02:23;58.10;;;29.63;;
23474;SDS011;11910;52.086;21.066;2023-01-28T05:04:49;57.25;;;29.45;;
23474;SDS011;11910;52.086;21.066;2023-01-28T05:07:14;61.03;;;30.45;;
23474;SDS011;11910;52.086;21.066;2023-01-28T05:09:40;55.65;;;29.60;;
23474;SDS011;11910;52.086;21.066;2023-01-28T05:12:05;54.15;;;29.75;;
23474;SDS011;11910;52.086;21.066;2023-01-28T05:14:31;52.90;;;29.52;;
23474;SDS011;11910;52.086;21.066;2023-01-28T05:16:57;48.33;;;26.77;;
23474;SDS011;11910;52.086;21.066;2023-01-28T05:19:22;55.95;;;28.67;;
23474;SDS011;11910;52.086;21.066;2023-01-28T05:21:48;48.88;;;27.67;;
23474;SDS011;11910;52.086;21.066;2023-01-28T05:24:13;52.72;;;27.77;;
23474;SDS011;11910;52.086;21.066;2023-01-28T05:26:39;50.95;;;28.08;;
23474;SDS011;11910;52.086;21.066;2023-01-28T05:29:05;48.85;;;27.17;;
23474;SDS011;11910;52.086;21.066;2023-01-28T05:31:31;49.33;;;28.02;;
23474;SDS011;11910;52.086;21.066;2023-01-28T05:33:57;46.58;;;26.48;;
23474;SDS011;11910;52.086;21.066;2023-01-28T05:36:23;44.20;;;25.23;;
23474;SDS011;11910;52.086;21.066;2023-01-28T05:38:48;48.30;;;26.15;;
23474;SDS011;11910;52.086;21.066;2023-01-28T05:41:14;47.85;;;25.63;;
23474;SDS011;11910;52.086;21.066;2023-01-28T05:43:40;47.47;;;26.05;;
23474;SDS011;11910;52.086;21.066;2023-01-28T05:46:05;45.40;;;25.40;;
23474;SDS011;11910;52.086;21.066;2023-01-28T05:48:31;47.13;;;26.15;;
23474;SDS011;11910;52.086;21.066;2023-01-28T05:50:56;40.92;;;24.75;;
23474;SDS011;11910;52.086;21.066;2023-01-28T05:53:22;41.58;;;24.83;;
23474;SDS011;11910;52.086;21.066;2023-01-28T05:55:48;43.17;;;25.98;;
23474;SDS011;11910;52.086;21.066;2023-01-28T05:58:15;44.42;;;25.25;;
23474;SDS011;11910;52.086;21.066;2023-01-28T06:00:40;39.90;;;23.92;;
23474;SDS011;11910;52.086;21.066;2023-01-28T06:03:06;42.33;;;24.35;;
23474;SDS011;11910;52.086;21.066;2023-01-28T06:05:32;43.80;;;25.65;;
23474;SDS011;11910;52.086;21.066;2023-01-28T06:07:58;41.60;;;24.08;;
23474;SDS011;11910;52.086;21.066;2023-01-28T06:10:23;41.13;;;23.60;;
23474;SDS011;11910;52.086;21.066;2023-01-28T06:12:49;40.05;;;23.88;;
23474;SDS011;11910;52.086;21.066;2023-01-28T06:15:14;37.88;;;22.92;;
23474;SDS011;11910;52.086;21.066;2023-01-28T06:17:40;38.70;;;24.02;;
23474;SDS011;11910;52.086;21.066;2023-01-28T06:20:06;38.75;;;22.77;;
23474;SDS011;11910;52.086;21.066;2023-01-28T06:22:35;36.28;;;22.10;;
23474;SDS011;11910;52.086;21.066;2023-01-28T06:25:00;37.50;;;22.52;;
23474;SDS011;11910;52.086;21.066;2023-01-28T06:27:26;38.50;;;22.90;;
23474;SDS011;11910;52.086;21.066;2023-01-28T06:29:52;41.53;;;23.50;;
23474;SDS011;11910;52.086;21.066;2023-01-28T06:32:18;37.15;;;22.10;;
23474;SDS011;11910;52.086;21.066;2023-01-28T06:34:43;36.13;;;22.27;;
23474;SDS011;11910;52.086;21.066;2023-01-28T06:37:11;36.35;;;22.40;;
23474;SDS011;11910;52.086;21.066;2023-01-28T06:39:38;38.00;;;22.55;;
23474;SDS011;11910;52.086;21.066;2023-01-28T06:42:03;36.90;;;22.67;;
23474;SDS011;11910;52.086;21.066;2023-01-28T06:44:29;35.75;;;22.77;;
23474;SDS011;11910;52.086;21.066;2023-01-28T06:46:54;36.55;;;21.65;;
23474;SDS011;11910;52.086;21.066;2023-01-28T06:49:20;36.08;;;21.48;;
23474;SDS011;11910;52.086;21.066;2023-01-28T06:51:46;35.03;;;21.13;;
23474;SDS011;11910;52.086;21.066;2023-01-28T06:54:12;38.45;;;21.92;;
23474;SDS011;11910;52.086;21.066;2023-01-28T06:56:38;35.10;;;21.23;;
23474;SDS011;11910;52.086;21.066;2023-01-28T06:59:03;35.38;;;21.75;;
23474;SDS011;11910;52.086;21.066;2023-01-28T07:01:29;35.03;;;21.05;;
23474;SDS011;11910;52.086;21.066;2023-01-28T07:03:55;33.63;;;20.85;;
23474;SDS011;11910;52.086;21.066;2023-01-28T07:06:21;36.15;;;22.15;;
23474;SDS011;11910;52.086;21.066;2023-01-28T07:08:46;37.25;;;21.20;;
23474;SDS011;11910;52.086;21.066;2023-01-28T07:11:13;35.40;;;21.60;;
23474;SDS011;11910;52.086;21.066;2023-01-28T07:13:39;37.72;;;21.60;;
23474;SDS011;11910;52.086;21.066;2023-01-28T07:16:05;36.58;;;21.80;;
23474;SDS011;11910;52.086;21.066;2023-01-28T07:18:32;36.92;;;21.80;;
23474;SDS011;11910;52.086;21.066;2023-01-28T07:20:57;38.47;;;22.42;;
23474;SDS011;11910;52.086;21.066;2023-01-28T07:23:23;36.10;;;21.00;;
23474;SDS011;11910;52.086;21.066;2023-01-28T07:25:49;36.72;;;21.55;;
23474;SDS011;11910;52.086;21.066;2023-01-28T07:28:14;36.53;;;20.90;;
23474;SDS011;11910;52.086;21.066;2023-01-28T07:30:46;37.92;;;21.40;;
23474;SDS011;11910;52.086;21.066;2023-01-28T07:33:14;40.00;;;21.35;;
23474;SDS011;11910;52.086;21.066;2023-01-28T07:35:41;40.88;;;22.45;;
23474;SDS011;11910;52.086;21.066;2023-01-28T07:38:07;39.72;;;20.83;;
23474;SDS011;11910;52.086;21.066;2023-01-28T07:40:33;41.20;;;22.08;;
23474;SDS011;11910;52.086;21.066;2023-01-28T07:42:58;39.72;;;21.23;;
23474;SDS011;11910;52.086;21.066;2023-01-28T07:45:25;39.35;;;20.92;;
23474;SDS011;11910;52.086;21.066;2023-01-28T07:47:54;37.08;;;21.27;;
23474;SDS011;11910;52.086;21.066;2023-01-28T07:50:21;38.15;;;20.52;;
23474;SDS011;11910;52.086;21.066;2023-01-28T07:52:47;38.53;;;21.17;;
23474;SDS011;11910;52.086;21.066;2023-01-28T07:55:12;38.78;;;20.50;;
23474;SDS011;11910;52.086;21.066;2023-01-28T07:57:46;37.80;;;20.70;;
23474;SDS011;11910;52.086;21.066;2023-01-28T08:00:16;37.45;;;20.13;;
23474;SDS011;11910;52.086;21.066;2023-01-28T08:02:43;39.50;;;21.02;;
23474;SDS011;11910;52.086;21.066;2023-01-28T08:05:20;41.17;;;21.92;;
23474;SDS011;11910;52.086;21.066;2023-01-28T08:07:47;40.70;;;22.27;;
23474;SDS011;11910;52.086;21.066;2023-01-28T08:10:13;42.97;;;21.30;;
23474;SDS011;11910;52.086;21.066;2023-01-28T08:12:41;41.22;;;21.70;;
23474;SDS011;11910;52.086;21.066;2023-01-28T08:15:18;42.80;;;21.92;;
23474;SDS011;11910;52.086;21.066;2023-01-28T08:17:44;42.88;;;22.27;;
23474;SDS011;11910;52.086;21.066;2023-01-28T08:20:10;42.03;;;21.92;;
23474;SDS011;11910;52.086;21.066;2023-01-28T08:22:36;43.65;;;22.13;;
23474;SDS011;11910;52.086;21.066;2023-01-28T08:25:01;42.80;;;21.63;;
23474;SDS011;11910;52.086;21.066;2023-01-28T08:27:27;38.88;;;20.05;;
23474;SDS011;11910;52.086;21.066;2023-01-28T08:29:53;41.17;;;21.42;;
23474;SDS011;11910;52.086;21.066;2023-01-28T08:32:19;41.78;;;21.42;;
23474;SDS011;11910;52.086;21.066;2023-01-28T08:34:45;42.90;;;21.30;;
23474;SDS011;11910;52.086;21.066;2023-01-28T08:37:10;41.85;;;21.50;;
23474;SDS011;11910;52.086;21.066;2023-01-28T08:39:36;44.88;;;22.52;;
23474;SDS011;11910;52.086;21.066;2023-01-28T08:42:02;39.38;;;20.38;;
23474;SDS011;11910;52.086;21.066;2023-01-28T08:44:30;37.60;;;20.48;;
23474;SDS011;11910;52.086;21.066;2023-01-28T08:46:55;37.38;;;20.27;;
23474;SDS011;11910;52.086;21.066;2023-01-28T08:49:21;39.72;;;20.48;;
23474;SDS011;11910;52.086;21.066;2023-01-28T08:51:46;35.67;;;19.27;;
23474;SDS011;11910;52.086;21.066;2023-01-28T08:54:13;37.53;;;19.73;;
23474;SDS011;11910;52.086;21.066;2023-01-28T08:56:38;38.38;;;19.65;;
23474;SDS011;11910;52.086;21.066;2023-01-28T08:59:06;37.55;;;19.63;;
23474;SDS011;11910;52.086;21.066;2023-01-28T09:01:32;39.72;;;20.38;;
23474;SDS011;11910;52.086;21.066;2023-01-28T09:03:58;34.83;;;19.67;;
23474;SDS011;11910;52.086;21.066;2023-01-28T09:06:23;37.60;;;20.30;;
23474;SDS011;11910;52.086;21.066;2023-01-28T09:08:55;37.40;;;19.58;;
23474;SDS011;11910;52.086;21.066;2023-01-28T09:11:27;40.25;;;20.67;;
23474;SDS011;11910;52.086;21.066;2023-01-28T09:13:53;39.15;;;19.40;;
23474;SDS011;11910;52.086;21.066;2023-01-28T09:16:21;38.20;;;20.25;;
23474;SDS011;11910;52.086;21.066;2023-01-28T09:18:46;36.30;;;19.77;;
23474;SDS011;11910;52.086;21.066;2023-01-28T09:21:15;36.20;;;19.67;;
23474;SDS011;11910;52.086;21.066;2023-01-28T09:23:41;32.25;;;18.27;;
23474;SDS011;11910;52.086;21.066;2023-01-28T09:26:07;32.22;;;18.23;;
23474;SDS011;11910;52.086;21.066;2023-01-28T09:28:33;34.75;;;19.08;;
23474;SDS011;11910;52.086;21.066;2023-01-28T09:31:00;29.08;;;16.85;;
23474;SDS011;11910;52.086;21.066;2023-01-28T09:33:30;30.88;;;17.23;;
23474;SDS011;11910;52.086;21.066;2023-01-28T09:35:58;30.88;;;16.90;;
23474;SDS011;11910;52.086;21.066;2023-01-28T09:38:28;30.02;;;16.77;;
23474;SDS011;11910;52.086;21.066;2023-01-28T09:40:54;30.10;;;17.15;;
23474;SDS011;11910;52.086;21.066;2023-01-28T09:46:14;32.65;;;18.30;;
23474;SDS011;11910;52.086;21.066;2023-01-28T09:48:43;33.80;;;17.85;;
23474;SDS011;11910;52.086;21.066;2023-01-28T09:51:19;31.13;;;17.33;;
23474;SDS011;11910;52.086;21.066;2023-01-28T09:54:21;32.67;;;18.63;;
23474;SDS011;11910;52.086;21.066;2023-01-28T09:56:52;32.28;;;18.42;;
23474;SDS011;11910;52.086;21.066;2023-01-28T09:59:30;33.65;;;19.05;;
23474;SDS011;11910;52.086;21.066;2023-01-28T10:02:02;32.35;;;19.05;;
23474;SDS011;11910;52.086;21.066;2023-01-28T10:05:02;33.85;;;19.55;;
23474;SDS011;11910;52.086;21.066;2023-01-28T10:10:51;34.50;;;21.10;;
23474;SDS011;11910;52.086;21.066;2023-01-28T10:18:46;39.58;;;21.95;;
23474;SDS011;11910;52.086;21.066;2023-01-28T10:21:41;38.05;;;21.77;;
23474;SDS011;11910;52.086;21.066;2023-01-28T10:24:19;36.95;;;22.15;;
23474;SDS011;11910;52.086;21.066;2023-01-28T10:26:53;35.75;;;20.92;;
23474;SDS011;11910;52.086;21.066;2023-01-28T10:29:22;36.88;;;21.95;;
23474;SDS011;11910;52.086;21.066;2023-01-28T10:34:16;38.67;;;22.70;;
23474;SDS011;11910;52.086;21.066;2023-01-28T10:36:42;38.42;;;23.08;;
23474;SDS011;11910;52.086;21.066;2023-01-28T10:39:09;34.28;;;22.65;;
23474;SDS011;11910;52.086;21.066;2023-01-28T10:41:39;36.15;;;22.95;;
23474;SDS011;11910;52.086;21.066;2023-01-28T10:44:07;36.45;;;22.80;;
23474;SDS011;11910;52.086;21.066;2023-01-28T10:46:42;35.35;;;22.25;;
23474;SDS011;11910;52.086;21.066;2023-01-28T10:51:48;35.42;;;22.98;;
23474;SDS011;11910;52.086;21.066;2023-01-28T10:54:17;30.85;;;20.88;;
23474;SDS011;11910;52.086;21.066;2023-01-28T10:56:48;32.63;;;20.55;;
23474;SDS011;11910;52.086;21.066;2023-01-28T11:01:52;30.83;;;20.65;;
23474;SDS011;11910;52.086;21.066;2023-01-28T11:04:28;31.20;;;20.88;;
23474;SDS011;11910;52.086;21.066;2023-01-28T11:06:58;30.50;;;21.15;;
23474;SDS011;11910;52.086;21.066;2023-01-28T11:09:32;33.80;;;22.00;;
23474;SDS011;11910;52.086;21.066;2023-01-28T11:12:16;31.58;;;21.60;;
23474;SDS011;11910;52.086;21.066;2023-01-28T11:14:49;30.50;;;21.73;;
23474;SDS011;11910;52.086;21.066;2023-01-28T11:17:16;33.00;;;22.37;;
23474;SDS011;11910;52.086;21.066;2023-01-28T11:19:43;29.65;;;20.52;;
23474;SDS011;11910;52.086;21.066;2023-01-28T11:22:18;31.88;;;21.50;;
23474;SDS011;11910;52.086;21.066;2023-01-28T11:24:45;34.28;;;22.95;;
23474;SDS011;11910;52.086;21.066;2023-01-28T11:27:14;29.02;;;21.40;;
23474;SDS011;11910;52.086;21.066;2023-01-28T11:29:41;31.50;;;21.90;;
23474;SDS011;11910;52.086;21.066;2023-01-28T11:32:17;33.20;;;22.48;;
23474;SDS011;11910;52.086;21.066;2023-01-28T11:34:48;29.58;;;20.35;;
23474;SDS011;11910;52.086;21.066;2023-01-28T11:37:15;33.40;;;22.27;;
23474;SDS011;11910;52.086;21.066;2023-01-28T11:39:40;48.35;;;26.70;;
23474;SDS011;11910;52.086;21.066;2023-01-28T11:42:19;31.83;;;22.05;;
23474;SDS011;11910;52.086;21.066;2023-01-28T11:44:46;35.53;;;22.73;;
23474;SDS011;11910;52.086;21.066;2023-01-28T11:52:40;73.03;;;31.95;;
23474;SDS011;11910;52.086;21.066;2023-01-28T12:05:52;54.78;;;26.58;;
23474;SDS011;11910;52.086;21.066;2023-01-28T12:11:25;37.20;;;22.05;;
23474;SDS011;11910;52.086;21.066;2023-01-28T12:19:54;39.42;;;22.65;;
23474;SDS011;11910;52.086;21.066;2023-01-28T12:42:19;39.45;;;23.00;;
23474;SDS011;11910;52.086;21.066;2023-01-28T12:44:51;38.92;;;21.25;;
23474;SDS011;11910;52.086;21.066;2023-01-28T12:47:34;30.45;;;19.92;;
23474;SDS011;11910;52.086;21.066;2023-01-28T12:50:04;30.58;;;20.13;;
23474;SDS011;11910;52.086;21.066;2023-01-28T12:52:40;35.55;;;20.42;;
23474;SDS011;11910;52.086;21.066;2023-01-28T12:57:51;34.25;;;21.15;;
23474;SDS011;11910;52.086;21.066;2023-01-28T13:06:08;43.33;;;23.48;;
23474;SDS011;11910;52.086;21.066;2023-01-28T13:08:41;29.73;;;19.83;;
23474;SDS011;11910;52.086;21.066;2023-01-28T13:11:09;26.83;;;17.98;;
23474;SDS011;11910;52.086;21.066;2023-01-28T13:13:40;33.13;;;20.45;;
23474;SDS011;11910;52.086;21.066;2023-01-28T13:16:08;47.90;;;22.95;;
23474;SDS011;11910;52.086;21.066;2023-01-28T13:21:31;39.85;;;22.30;;
23474;SDS011;11910;52.086;21.066;2023-01-28T13:26:47;37.15;;;20.23;;
23474;SDS011;11910;52.086;21.066;2023-01-28T13:31:51;30.52;;;18.58;;
23474;SDS011;11910;52.086;21.066;2023-01-28T13:36:50;31.95;;;18.92;;
23474;SDS011;11910;52.086;21.066;2023-01-28T13:39:17;42.78;;;21.35;;
23474;SDS011;11910;52.086;21.066;2023-01-28T13:41:47;44.42;;;22.70;;
23474;SDS011;11910;52.086;21.066;2023-01-28T13:44:17;36.63;;;20.00;;
23474;SDS011;11910;52.086;21.066;2023-01-28T13:46:49;36.78;;;21.13;;
23474;SDS011;11910;52.086;21.066;2023-01-28T13:49:25;66.45;;;28.75;;
23474;SDS011;11910;52.086;21.066;2023-01-28T13:52:06;31.63;;;19.77;;
23474;SDS011;11910;52.086;21.066;2023-01-28T13:54:35;27.35;;;18.73;;
23474;SDS011;11910;52.086;21.066;2023-01-28T13:57:14;38.67;;;21.80;;
23474;SDS011;11910;52.086;21.066;2023-01-28T14:08:20;31.73;;;19.88;;
23474;SDS011;11910;52.086;21.066;2023-01-28T14:14:02;36.90;;;20.42;;
23474;SDS011;11910;52.086;21.066;2023-01-28T14:17:04;38.88;;;21.00;;
23474;SDS011;11910;52.086;21.066;2023-01-28T14:19:37;37.28;;;19.40;;
23474;SDS011;11910;52.086;21.066;2023-01-28T14:22:07;33.33;;;20.30;;
23474;SDS011;11910;52.086;21.066;2023-01-28T14:24:35;34.58;;;20.95;;
23474;SDS011;11910;52.086;21.066;2023-01-28T14:27:12;44.28;;;22.90;;
23474;SDS011;11910;52.086;21.066;2023-01-28T14:29:44;48.67;;;25.23;;
23474;SDS011;11910;52.086;21.066;2023-01-28T14:32:30;40.80;;;22.92;;
23474;SDS011;11910;52.086;21.066;2023-01-28T14:34:59;41.92;;;23.13;;
23474;SDS011;11910;52.086;21.066;2023-01-28T14:40:00;33.42;;;19.73;;
23474;SDS011;11910;52.086;21.066;2023-01-28T14:42:41;32.67;;;19.55;;
23474;SDS011;11910;52.086;21.066;2023-01-28T14:47:58;26.20;;;16.10;;
23474;SDS011;11910;52.086;21.066;2023-01-28T14:50:41;22.10;;;15.82;;
23474;SDS011;11910;52.086;21.066;2023-01-28T14:58:47;26.85;;;17.10;;
23474;SDS011;11910;52.086;21.066;2023-01-28T15:03:51;28.98;;;17.25;;
23474;SDS011;11910;52.086;21.066;2023-01-28T15:06:21;23.98;;;15.93;;
23474;SDS011;11910;52.086;21.066;2023-01-28T15:09:04;24.85;;;15.90;;
23474;SDS011;11910;52.086;21.066;2023-01-28T15:11:31;28.02;;;15.57;;
23474;SDS011;11910;52.086;21.066;2023-01-28T15:14:00;26.85;;;15.77;;
23474;SDS011;11910;52.086;21.066;2023-01-28T15:16:27;25.08;;;16.15;;
23474;SDS011;11910;52.086;21.066;2023-01-28T15:18:55;26.70;;;16.35;;
23474;SDS011;11910;52.086;21.066;2023-01-28T15:21:24;19.75;;;13.70;;
23474;SDS011;11910;52.086;21.066;2023-01-28T15:23:54;22.30;;;15.18;;
23474;SDS011;11910;52.086;21.066;2023-01-28T15:28:51;20.17;;;15.80;;
23474;SDS011;11910;52.086;21.066;2023-01-28T15:31:20;23.50;;;16.48;;
23474;SDS011;11910;52.086;21.066;2023-01-28T15:33:55;21.40;;;15.80;;
23474;SDS011;11910;52.086;21.066;2023-01-28T15:36:35;23.27;;;17.00;;
23474;SDS011;11910;52.086;21.066;2023-01-28T15:39:00;25.48;;;18.00;;
23474;SDS011;11910;52.086;21.066;2023-01-28T15:41:27;28.77;;;18.90;;
23474;SDS011;11910;52.086;21.066;2023-01-28T15:44:00;27.67;;;20.08;;
23474;SDS011;11910;52.086;21.066;2023-01-28T15:46:26;33.97;;;21.88;;
23474;SDS011;11910;52.086;21.066;2023-01-28T15:48:55;27.88;;;18.73;;
23474;SDS011;11910;52.086;21.066;2023-01-28T15:51:25;28.08;;;18.70;;
23474;SDS011;11910;52.086;21.066;2023-01-28T15:53:55;23.10;;;16.40;;
23474;SDS011;11910;52.086;21.066;2023-01-28T15:56:25;23.17;;;16.55;;
23474;SDS011;11910;52.086;21.066;2023-01-28T15:58:52;22.75;;;16.48;;
23474;SDS011;11910;52.086;21.066;2023-01-28T16:01:20;24.40;;;17.38;;
23474;SDS011;11910;52.086;21.066;2023-01-28T16:03:58;25.55;;;17.38;;
23474;SDS011;11910;52.086;21.066;2023-01-28T16:06:29;24.58;;;17.33;;
23474;SDS011;11910;52.086;21.066;2023-01-28T16:08:58;24.33;;;16.52;;
23474;SDS011;11910;52.086;21.066;2023-01-28T16:11:27;23.05;;;16.00;;
23474;SDS011;11910;52.086;21.066;2023-01-28T16:13:59;19.38;;;14.35;;
23474;SDS011;11910;52.086;21.066;2023-01-28T16:16:26;18.42;;;13.48;;
23474;SDS011;11910;52.086;21.066;2023-01-28T16:18:58;17.10;;;12.52;;
23474;SDS011;11910;52.086;21.066;2023-01-28T16:24:06;17.85;;;13.20;;
23474;SDS011;11910;52.086;21.066;2023-01-28T16:26:54;17.92;;;13.00;;
23474;SDS011;11910;52.086;21.066;2023-01-28T16:29:28;25.13;;;15.30;;
23474;SDS011;11910;52.086;21.066;2023-01-28T16:31:54;18.45;;;13.73;;
23474;SDS011;11910;52.086;21.066;2023-01-28T16:34:23;21.23;;;14.93;;
23474;SDS011;11910;52.086;21.066;2023-01-28T16:36:51;20.02;;;14.38;;